Time;durP1;ratioP1;P1;durP2;ratioP2;P2;SDS_P1;SDS_P2;PMS_P1;PMS_P2;Temp;Humidity;BMP_temperature;BMP_pressure;BME280_temperature;BME280_humidity;BME280_pressure;Samples;Min_cycle;Max_cycle;Signal;HPM_P1;HPM_P2
2023/04/24 00:01:13;;;;;;;;;;;13.10;99.90;;;;;;5004506;28;20419;-73
2023/04/24 00:03:39;;;;;;;;;;;13.10;99.90;;;;;;5007594;28;19960;-72
2023/04/24 00:06:07;;;;;;;;;;;13.10;99.90;;;;;;4991626;28;19921;-73
2023/04/24 00:08:34;;;;;;;;;;;13.10;99.90;;;;;;5006048;28;20032;-73
2023/04/24 00:10:59;;;;;;;;;;;13.00;99.90;;;;;;5008115;28;20502;-73
2023/04/24 00:13:25;;;;;;;;;;;13.10;99.90;;;;;;5007043;28;19913;-73
2023/04/24 00:15:51;;;;;;;;;;;13.10;99.90;;;;;;5009719;28;19917;-73
2023/04/24 00:18:16;;;;;;;;;;;13.10;99.90;;;;;;5009850;28;20503;-73
2023/04/24 00:20:43;;;;;;;;;;;13.10;99.90;;;;;;5011377;28;19916;-73
2023/04/24 00:23:09;;;;;;;;;;;13.10;99.90;;;;;;5009103;28;20274;-72
2023/04/24 00:25:35;;;;;;;;;;;13.00;99.90;;;;;;5029915;28;19937;-73
2023/04/24 00:28:00;;;;;;;;;;;13.10;99.90;;;;;;5012123;28;19963;-74
2023/04/24 00:30:26;;;;;;;;;;;13.10;99.90;;;;;;5009874;28;20356;-74
2023/04/24 00:32:51;;;;;;;;;;;13.00;99.90;;;;;;5022457;28;19913;-73
2023/04/24 00:35:19;;;;;;;;;;;13.10;99.90;;;;;;5006427;28;19910;-73
2023/04/24 00:37:45;;;;;;;;;;;13.00;99.90;;;;;;5004313;28;20678;-73
2023/04/24 00:40:11;;;;;;;;;;;13.00;99.90;;;;;;5006997;28;19949;-73
2023/04/24 00:42:36;;;;;;;;;;;13.00;99.90;;;;;;5012137;28;19944;-73
2023/04/24 00:45:03;;;;;;;;;;;12.90;99.90;;;;;;5004497;28;19913;-73
2023/04/24 00:47:28;;;;;;;;;;;12.90;99.90;;;;;;5004897;28;19944;-73
2023/04/24 00:49:54;;;;;;;;;;;12.90;99.90;;;;;;5027362;28;20340;-74
2023/04/24 00:52:20;;;;;;;;;;;12.90;99.90;;;;;;5009994;28;20032;-73
2023/04/24 00:54:46;;;;;;;;;;;12.80;99.90;;;;;;5013046;28;19996;-74
2023/04/24 00:57:13;;;;;;;;;;;12.80;99.90;;;;;;5007334;28;19913;-74
2023/04/24 00:59:40;;;;;;;;;;;12.80;99.90;;;;;;5021216;28;19972;-74
2023/04/24 01:02:07;;;;;;;;;;;12.70;99.90;;;;;;5008696;28;19931;-74
2023/04/24 01:04:34;;;;;;;;;;;12.70;99.90;;;;;;5005713;28;19913;-74
2023/04/24 01:07:00;;;;;;;;;;;12.60;99.90;;;;;;5013809;28;20395;-74
2023/04/24 01:09:27;;;;;;;;;;;12.60;99.90;;;;;;5003592;28;19936;-74
2023/04/24 01:11:52;;;;;;;;;;;12.60;99.90;;;;;;5007420;28;19982;-74
2023/04/24 01:14:18;;;;;;;;;;;12.60;99.90;;;;;;5019756;28;19913;-73
2023/04/24 01:16:44;;;;;;;;;;;12.60;99.90;;;;;;5012899;28;19920;-74
2023/04/24 01:19:10;;;;;;;;;;;12.50;99.90;;;;;;5017174;28;19916;-74
2023/04/24 01:21:37;;;;;;;;;;;12.50;99.90;;;;;;5009387;28;19913;-74
2023/04/24 01:24:03;;;;;;;;;;;12.50;99.90;;;;;;5012602;28;19953;-75
2023/04/24 01:26:29;;;;;;;;;;;12.50;99.90;;;;;;5008416;28;19961;-74
2023/04/24 01:28:54;;;;;;;;;;;12.50;99.90;;;;;;5009775;28;20413;-74
2023/04/24 01:31:20;;;;;;;;;;;12.50;99.90;;;;;;5008562;28;19909;-74
2023/04/24 01:33:46;;;;;;;;;;;12.50;99.90;;;;;;5013478;28;19910;-74
2023/04/24 01:36:13;;;;;;;;;;;12.50;99.90;;;;;;5045336;28;19918;-74
2023/04/24 01:38:39;;;;;;;;;;;12.50;99.90;;;;;;5007674;28;20598;-73
2023/04/24 01:41:04;;;;;;;;;;;12.50;99.90;;;;;;5004885;28;20011;-74
2023/04/24 01:43:30;;;;;;;;;;;12.50;99.90;;;;;;5006081;28;20489;-74
2023/04/24 01:45:56;;;;;;;;;;;12.50;99.90;;;;;;5006769;28;19993;-74
2023/04/24 01:48:22;;;;;;;;;;;12.50;99.90;;;;;;5038962;28;19917;-74
2023/04/24 01:50:47;;;;;;;;;;;12.50;99.90;;;;;;5008051;28;19909;-74
2023/04/24 01:53:13;;;;;;;;;;;12.50;99.90;;;;;;5004557;28;19916;-74
2023/04/24 01:55:38;;;;;;;;;;;12.50;99.90;;;;;;5010145;28;19971;-74
2023/04/24 01:58:04;;;;;;;;;;;12.50;99.90;;;;;;5011764;28;19916;-74
2023/04/24 02:00:30;;;;;;;;;;;12.50;99.90;;;;;;5006893;28;20032;-74
2023/04/24 02:02:55;;;;;;;;;;;12.50;99.90;;;;;;5008242;28;20040;-74
2023/04/24 02:05:21;;;;;;;;;;;12.40;99.90;;;;;;5012607;28;20004;-74
2023/04/24 02:07:46;;;;;;;;;;;12.40;99.90;;;;;;5006384;28;19913;-75
2023/04/24 02:10:12;;;;;;;;;;;12.30;99.90;;;;;;5009101;28;19916;-74
2023/04/24 02:12:38;;;;;;;;;;;12.30;99.90;;;;;;4991625;28;20008;-74
2023/04/24 02:15:04;;;;;;;;;;;12.30;99.90;;;;;;5009503;28;19905;-74
2023/04/24 02:17:30;;;;;;;;;;;12.20;99.90;;;;;;5008533;28;20348;-74
2023/04/24 02:19:56;;;;;;;;;;;12.20;99.90;;;;;;5007975;28;19937;-74
2023/04/24 02:22:21;;;;;;;;;;;12.10;99.90;;;;;;5023744;28;20035;-74
2023/04/24 02:24:47;;;;;;;;;;;12.20;99.90;;;;;;5008104;28;19956;-75
2023/04/24 02:27:13;;;;;;;;;;;12.10;99.90;;;;;;5007774;28;20373;-74
2023/04/24 02:29:38;;;;;;;;;;;12.10;99.90;;;;;;5004604;28;19909;-74
2023/04/24 02:32:04;;;;;;;;;;;12.10;99.90;;;;;;5009154;28;20222;-74
2023/04/24 02:34:30;;;;;;;;;;;12.10;99.90;;;;;;5008512;28;20016;-74
2023/04/24 02:36:55;;;;;;;;;;;12.10;99.90;;;;;;5009840;28;19933;-73
2023/04/24 02:39:21;;;;;;;;;;;12.00;99.90;;;;;;5009730;28;19909;-73
2023/04/24 02:41:46;;;;;;;;;;;12.00;99.90;;;;;;5004711;28;19921;-73
2023/04/24 02:44:12;;;;;;;;;;;12.00;99.90;;;;;;5008692;28;19913;-73
2023/04/24 02:46:38;;;;;;;;;;;11.90;99.90;;;;;;5008212;28;19913;-73
2023/04/24 02:49:03;;;;;;;;;;;11.90;99.90;;;;;;5005172;28;20982;-73
2023/04/24 02:51:31;;;;;;;;;;;11.90;99.90;;;;;;5006734;28;19925;-74
2023/04/24 02:53:57;;;;;;;;;;;11.90;99.90;;;;;;5007322;28;19953;-74
2023/04/24 02:56:22;;;;;;;;;;;11.90;99.90;;;;;;5006410;28;19956;-73
2023/04/24 02:58:48;;;;;;;;;;;11.80;99.90;;;;;;5008157;28;19905;-74
2023/04/24 03:01:13;;;;;;;;;;;11.80;99.90;;;;;;5012543;28;19920;-73
2023/04/24 03:03:39;;;;;;;;;;;11.70;99.90;;;;;;5006271;28;19910;-74
2023/04/24 03:06:05;;;;;;;;;;;11.70;99.90;;;;;;5007472;28;19913;-73
2023/04/24 03:08:31;;;;;;;;;;;11.70;99.90;;;;;;4988035;28;19964;-73
2023/04/24 03:10:57;;;;;;;;;;;11.70;99.90;;;;;;5006037;28;19959;-74
2023/04/24 03:13:22;;;;;;;;;;;11.70;99.90;;;;;;4998192;28;19980;-73
2023/04/24 03:15:48;;;;;;;;;;;11.70;99.90;;;;;;4998784;28;19912;-73
2023/04/24 03:18:14;;;;;;;;;;;11.70;99.90;;;;;;5024878;28;19914;-73
2023/04/24 03:20:39;;;;;;;;;;;11.60;99.90;;;;;;5025643;28;19996;-72
2023/04/24 03:23:05;;;;;;;;;;;11.60;99.90;;;;;;5012250;28;19909;-73
2023/04/24 03:25:30;;;;;;;;;;;11.60;99.90;;;;;;5010084;28;19916;-73
2023/04/24 03:27:56;;;;;;;;;;;11.60;99.90;;;;;;5011837;28;19963;-72
2023/04/24 03:30:25;;;;;;;;;;;11.50;99.90;;;;;;5041687;28;19910;-74
2023/04/24 03:32:51;;;;;;;;;;;11.50;99.90;;;;;;5007511;28;20227;-72
2023/04/24 03:35:16;;;;;;;;;;;11.50;99.90;;;;;;5026638;28;19910;-73
2023/04/24 03:37:42;;;;;;;;;;;11.50;99.90;;;;;;5007678;28;20269;-73
2023/04/24 03:40:08;;;;;;;;;;;11.40;99.90;;;;;;5026674;28;20036;-73
2023/04/24 03:42:33;;;;;;;;;;;11.40;99.90;;;;;;5007100;28;19924;-73
2023/04/24 03:44:59;;;;;;;;;;;11.40;99.90;;;;;;5005774;28;20746;-73
2023/04/24 03:47:24;;;;;;;;;;;11.40;99.90;;;;;;5004423;28;20356;-73
2023/04/24 03:49:50;;;;;;;;;;;11.40;99.90;;;;;;5009766;28;19916;-73
2023/04/24 03:52:16;;;;;;;;;;;11.40;99.90;;;;;;5014947;28;20305;-74
2023/04/24 03:54:42;;;;;;;;;;;11.40;99.90;;;;;;4997378;28;19918;-72
2023/04/24 03:57:07;;;;;;;;;;;11.40;99.90;;;;;;5014719;28;20369;-73
2023/04/24 03:59:33;;;;;;;;;;;11.40;99.90;;;;;;5013255;28;20003;-73
2023/04/24 04:01:58;;;;;;;;;;;11.40;99.90;;;;;;5024624;28;19926;-73
2023/04/24 04:04:24;;;;;;;;;;;11.30;99.90;;;;;;5011944;28;19909;-73
2023/04/24 04:06:49;;;;;;;;;;;11.30;99.90;;;;;;5009020;28;19910;-73
2023/04/24 04:09:15;;;;;;;;;;;11.20;99.90;;;;;;5011113;28;19915;-73
2023/04/24 04:11:41;;;;;;;;;;;11.20;99.90;;;;;;5005953;28;19917;-73
2023/04/24 04:14:06;;;;;;;;;;;11.20;99.90;;;;;;5008994;28;21845;-73
2023/04/24 04:16:32;;;;;;;;;;;11.20;99.90;;;;;;5008948;28;20008;-73
2023/04/24 04:18:58;;;;;;;;;;;11.20;99.90;;;;;;5011006;28;19913;-73
2023/04/24 04:21:24;;;;;;;;;;;11.20;99.90;;;;;;5013106;28;20027;-73
2023/04/24 04:23:49;;;;;;;;;;;11.20;99.90;;;;;;4992748;28;19932;-74
2023/04/24 04:26:15;;;;;;;;;;;11.20;99.90;;;;;;5012290;28;19916;-73
2023/04/24 04:28:41;;;;;;;;;;;11.20;99.90;;;;;;5010150;28;20004;-74
2023/04/24 04:31:07;;;;;;;;;;;11.20;99.90;;;;;;5006072;28;19916;-74
2023/04/24 04:33:33;;;;;;;;;;;11.20;99.90;;;;;;5008515;28;20388;-75
2023/04/24 04:36:01;;;;;;;;;;;11.20;99.90;;;;;;5013171;28;19920;-75
2023/04/24 04:38:29;;;;;;;;;;;11.20;99.90;;;;;;5019878;28;20643;-74
2023/04/24 04:40:56;;;;;;;;;;;11.20;99.90;;;;;;5008224;28;19967;-74
2023/04/24 04:43:23;;;;;;;;;;;11.10;99.90;;;;;;5037808;28;19951;-73
2023/04/24 04:45:51;;;;;;;;;;;11.20;99.90;;;;;;4999704;28;20370;-74
2023/04/24 04:48:17;;;;;;;;;;;11.20;99.90;;;;;;5017697;28;19913;-73
2023/04/24 04:50:43;;;;;;;;;;;11.30;99.90;;;;;;5046618;28;19920;-73
2023/04/24 04:53:08;;;;;;;;;;;11.40;99.90;;;;;;5014332;28;19913;-73
2023/04/24 04:55:34;;;;;;;;;;;11.50;99.90;;;;;;4989189;28;19909;-74
2023/04/24 04:58:00;;;;;;;;;;;11.50;99.90;;;;;;5016142;28;19936;-73
2023/04/24 05:00:27;;;;;;;;;;;11.60;99.90;;;;;;4999212;28;19925;-74
2023/04/24 05:02:52;;;;;;;;;;;11.60;99.90;;;;;;4996471;28;19940;-74
2023/04/24 05:05:18;;;;;;;;;;;11.50;99.90;;;;;;4994912;28;19917;-73
2023/04/24 05:07:44;;;;;;;;;;;11.40;99.90;;;;;;5001271;28;20393;-74
2023/04/24 05:10:10;;;;;;;;;;;11.40;99.90;;;;;;4998643;28;19917;-75
2023/04/24 05:12:36;;;;;;;;;;;11.30;99.90;;;;;;4989217;28;20384;-75
2023/04/24 05:15:02;;;;;;;;;;;11.30;99.90;;;;;;5004172;28;19967;-73
2023/04/24 05:17:27;;;;;;;;;;;11.30;99.90;;;;;;5003306;28;19914;-75
2023/04/24 05:19:53;;;;;;;;;;;11.40;99.90;;;;;;5004239;28;19982;-74
2023/04/24 05:22:20;;;;;;;;;;;11.40;99.90;;;;;;5006431;28;20452;-74
2023/04/24 05:24:46;;;;;;;;;;;11.40;99.90;;;;;;5011089;28;20488;-75
2023/04/24 05:27:12;;;;;;;;;;;11.50;99.90;;;;;;5024768;28;20000;-73
2023/04/24 05:29:40;;;;;;;;;;;11.60;99.90;;;;;;5002879;28;19948;-74
2023/04/24 05:32:06;;;;;;;;;;;11.50;99.90;;;;;;5006440;28;19940;-73
2023/04/24 05:34:32;;;;;;;;;;;11.50;99.90;;;;;;5007814;28;19905;-74
2023/04/24 05:36:57;;;;;;;;;;;11.50;99.90;;;;;;5008124;28;20449;-74
2023/04/24 05:39:24;;;;;;;;;;;11.50;99.90;;;;;;5017172;28;19909;-75
2023/04/24 05:41:50;;;;;;;;;;;11.60;99.90;;;;;;5009390;28;19917;-74
2023/04/24 05:44:16;;;;;;;;;;;11.60;99.90;;;;;;5014079;28;19920;-73
2023/04/24 05:46:41;;;;;;;;;;;11.60;99.90;;;;;;5007157;28;20405;-74
2023/04/24 05:49:07;;;;;;;;;;;11.60;99.90;;;;;;5039010;28;19913;-73
2023/04/24 05:51:33;;;;;;;;;;;11.60;99.90;;;;;;5004167;28;19937;-71
2023/04/24 05:53:58;;;;;;;;;;;11.70;99.90;;;;;;5002569;28;20052;-74
2023/04/24 05:56:24;;;;;;;;;;;11.80;99.90;;;;;;5011152;28;19948;-72
2023/04/24 05:58:49;;;;;;;;;;;11.70;99.90;;;;;;5005422;28;19944;-73
2023/04/24 06:01:15;;;;;;;;;;;11.80;99.90;;;;;;5013930;28;20387;-73
2023/04/24 06:03:41;;;;;;;;;;;11.80;99.90;;;;;;5005836;28;19917;-72
2023/04/24 06:06:07;;;;;;;;;;;11.70;99.90;;;;;;5014864;28;19909;-72
2023/04/24 06:08:32;;;;;;;;;;;11.70;99.90;;;;;;5006896;28;19909;-72
2023/04/24 06:10:58;;;;;;;;;;;11.80;99.90;;;;;;5012819;28;19928;-72
2023/04/24 06:13:24;;;;;;;;;;;11.90;99.90;;;;;;5011502;28;19909;-72
2023/04/24 06:15:50;;;;;;;;;;;11.90;99.90;;;;;;4996157;28;20376;-72
2023/04/24 06:18:15;;;;;;;;;;;12.00;99.90;;;;;;5011896;28;19996;-73
2023/04/24 06:20:41;;;;;;;;;;;11.90;99.90;;;;;;5016699;28;19960;-72
2023/04/24 06:23:07;;;;;;;;;;;11.90;99.90;;;;;;5014286;28;19991;-72
2023/04/24 06:25:32;;;;;;;;;;;12.00;99.90;;;;;;5011198;28;19913;-75
2023/04/24 06:27:58;;;;;;;;;;;12.00;99.90;;;;;;5006031;28;19956;-74
2023/04/24 06:30:24;;;;;;;;;;;12.10;99.90;;;;;;5004501;28;19909;-71
2023/04/24 06:32:50;;;;;;;;;;;12.10;99.90;;;;;;4989463;28;22071;-72
2023/04/24 06:35:15;;;;;;;;;;;12.20;99.90;;;;;;4998293;28;20153;-72
2023/04/24 06:37:41;;;;;;;;;;;12.20;99.90;;;;;;5002058;28;19948;-71
2023/04/24 06:40:08;;;;;;;;;;;12.30;99.90;;;;;;4999420;28;19917;-73
2023/04/24 06:42:35;;;;;;;;;;;12.30;99.90;;;;;;4994444;28;19917;-72
2023/04/24 06:45:00;;;;;;;;;;;12.40;99.90;;;;;;5032137;28;19910;-72
2023/04/24 06:47:26;;;;;;;;;;;12.40;99.90;;;;;;5034292;28;19921;-72
2023/04/24 06:49:52;;;;;;;;;;;12.40;99.90;;;;;;5009230;28;19913;-72
2023/04/24 06:52:18;;;;;;;;;;;12.50;99.90;;;;;;5006267;28;20408;-71
2023/04/24 06:54:44;;;;;;;;;;;12.50;99.90;;;;;;5012783;28;19909;-72
2023/04/24 06:57:10;;;;;;;;;;;12.50;99.90;;;;;;5010421;28;20349;-71
2023/04/24 06:59:36;;;;;;;;;;;12.50;99.90;;;;;;5027990;28;19920;-72
2023/04/24 07:02:02;;;;;;;;;;;12.60;99.90;;;;;;5008600;28;19913;-72
2023/04/24 07:04:28;;;;;;;;;;;12.60;99.90;;;;;;5043963;28;19915;-73
2023/04/24 07:06:55;;;;;;;;;;;12.60;99.90;;;;;;5013205;28;19920;-72
2023/04/24 07:09:21;;;;;;;;;;;12.60;99.90;;;;;;5012102;28;19909;-73
2023/04/24 07:11:48;;;;;;;;;;;12.60;99.90;;;;;;5006597;28;19917;-70
2023/04/24 07:14:13;;;;;;;;;;;12.70;99.90;;;;;;5004569;28;19909;-72
2023/04/24 07:16:39;;;;;;;;;;;12.70;99.90;;;;;;5023024;28;19914;-72
2023/04/24 07:19:05;;;;;;;;;;;12.90;99.90;;;;;;5010391;28;19914;-72
2023/04/24 07:21:31;;;;;;;;;;;12.90;99.90;;;;;;5006260;28;20392;-73
2023/04/24 07:23:58;;;;;;;;;;;12.90;99.90;;;;;;5016243;28;19931;-74
2023/04/24 07:26:24;;;;;;;;;;;13.00;99.90;;;;;;5011013;28;19925;-72
2023/04/24 07:28:50;;;;;;;;;;;13.00;99.90;;;;;;5009038;28;20350;-72
2023/04/24 07:31:16;;;;;;;;;;;13.10;99.90;;;;;;5008641;28;19927;-72
2023/04/24 07:33:41;;;;;;;;;;;13.00;99.90;;;;;;5008195;28;19913;-73
2023/04/24 07:36:07;;;;;;;;;;;12.90;99.90;;;;;;5008599;28;19935;-74
2023/04/24 07:38:33;;;;;;;;;;;12.90;99.90;;;;;;5010013;28;19914;-76
2023/04/24 07:40:58;;;;;;;;;;;12.90;99.90;;;;;;5005852;28;19914;-72
2023/04/24 07:43:24;;;;;;;;;;;12.90;99.90;;;;;;4994063;28;20293;-72
2023/04/24 07:45:50;;;;;;;;;;;13.00;99.90;;;;;;5004254;28;21024;-72
2023/04/24 07:48:17;;;;;;;;;;;13.00;99.90;;;;;;5010533;28;19922;-73
2023/04/24 07:50:43;;;;;;;;;;;13.00;99.90;;;;;;5004824;28;19921;-72
2023/04/24 07:53:09;;;;;;;;;;;13.10;99.90;;;;;;4999962;28;20039;-72
2023/04/24 07:55:34;;;;;;;;;;;13.20;99.90;;;;;;4988155;28;20413;-72
2023/04/24 07:58:00;;;;;;;;;;;13.30;99.90;;;;;;5005688;28;19913;-71
2023/04/24 08:00:26;;;;;;;;;;;13.40;99.90;;;;;;5006369;28;19914;-76
2023/04/24 08:02:52;;;;;;;;;;;13.40;99.90;;;;;;5009169;28;19919;-71
2023/04/24 08:05:19;;;;;;;;;;;13.50;99.90;;;;;;5005192;28;20018;-74
2023/04/24 08:07:48;;;;;;;;;;;13.40;99.90;;;;;;5008641;28;19960;-77
2023/04/24 08:10:14;;;;;;;;;;;13.40;99.90;;;;;;5012285;28;19973;-73
2023/04/24 08:12:41;;;;;;;;;;;13.40;99.90;;;;;;5009134;28;19913;-73
2023/04/24 08:15:07;;;;;;;;;;;13.40;99.90;;;;;;5009044;28;21263;-71
2023/04/24 08:17:33;;;;;;;;;;;13.40;99.90;;;;;;5029679;28;19996;-71
2023/04/24 08:20:01;;;;;;;;;;;13.40;99.90;;;;;;5011022;28;19955;-71
2023/04/24 08:22:27;;;;;;;;;;;13.40;99.90;;;;;;5008286;28;20004;-71
2023/04/24 08:24:53;;;;;;;;;;;13.30;99.90;;;;;;5009021;28;19913;-72
2023/04/24 08:27:18;;;;;;;;;;;13.40;99.90;;;;;;4993317;28;20421;-73
2023/04/24 08:29:44;;;;;;;;;;;13.40;99.90;;;;;;5014906;28;19913;-73
2023/04/24 08:32:10;;;;;;;;;;;13.40;99.90;;;;;;5007530;28;20408;-73
2023/04/24 08:34:35;;;;;;;;;;;13.40;99.90;;;;;;5008349;28;20388;-73
2023/04/24 08:37:02;;;;;;;;;;;13.40;99.90;;;;;;5007659;28;20408;-73
2023/04/24 08:39:27;;;;;;;;;;;13.40;99.90;;;;;;5012810;28;19995;-72
2023/04/24 08:41:53;;;;;;;;;;;13.40;99.90;;;;;;5009065;28;19952;-73
2023/04/24 08:44:19;;;;;;;;;;;13.40;99.90;;;;;;5011732;28;19909;-72
2023/04/24 08:46:47;;;;;;;;;;;13.30;99.90;;;;;;5044364;28;20005;-73
2023/04/24 08:49:13;;;;;;;;;;;13.30;99.90;;;;;;5008315;28;19991;-72
2023/04/24 08:51:39;;;;;;;;;;;13.30;99.90;;;;;;5010558;28;20459;-73
2023/04/24 08:54:05;;;;;;;;;;;13.30;99.90;;;;;;5011578;28;20369;-73
2023/04/24 08:56:33;;;;;;;;;;;13.30;99.90;;;;;;5011610;28;19968;-72
2023/04/24 08:58:59;;;;;;;;;;;13.20;99.90;;;;;;5008214;28;19956;-72
2023/04/24 09:01:25;;;;;;;;;;;13.20;99.90;;;;;;5013401;28;19936;-73
2023/04/24 09:03:53;;;;;;;;;;;13.40;99.90;;;;;;5010504;28;20401;-73
2023/04/24 09:06:19;;;;;;;;;;;13.50;99.90;;;;;;5009276;28;20276;-74
2023/04/24 09:08:45;;;;;;;;;;;13.60;99.90;;;;;;5003858;28;20861;-73
2023/04/24 09:11:11;;;;;;;;;;;13.70;99.90;;;;;;5008318;28;20300;-72
2023/04/24 09:13:37;;;;;;;;;;;13.70;99.90;;;;;;5007930;28;19963;-73
2023/04/24 09:16:03;;;;;;;;;;;13.90;99.90;;;;;;5014333;28;19963;-71
2023/04/24 09:18:29;;;;;;;;;;;13.90;99.90;;;;;;5010370;28;19909;-72
2023/04/24 09:21:03;;;;;;;;;;;13.90;99.90;;;;;;5005246;28;19910;-71
2023/04/24 09:23:30;;;;;;;;;;;13.80;99.90;;;;;;5010164;28;20254;-72
2023/04/24 09:25:57;;;;;;;;;;;13.70;99.90;;;;;;5006626;28;20280;-72
2023/04/24 09:28:30;;;;;;;;;;;13.70;99.90;;;;;;5024393;28;19913;-72
2023/04/24 09:31:22;;;;;;;;;;;13.70;99.90;;;;;;5016246;28;19917;-73
2023/04/24 09:34:00;;;;;;;;;;;13.70;99.90;;;;;;5015542;28;19943;-72
2023/04/24 09:36:31;;;;;;;;;;;13.70;99.90;;;;;;5010288;28;19921;-76
2023/04/24 09:38:58;;;;;;;;;;;13.60;99.90;;;;;;5010979;28;19920;-72
2023/04/24 09:41:25;;;;;;;;;;;13.60;99.90;;;;;;5018313;28;19909;-71
2023/04/24 09:43:53;;;;;;;;;;;13.60;99.90;;;;;;5008525;28;20011;-72
2023/04/24 09:46:18;;;;;;;;;;;13.50;99.90;;;;;;5008380;28;19933;-72
2023/04/24 09:48:44;;;;;;;;;;;13.40;99.90;;;;;;5038832;28;19920;-73
2023/04/24 09:51:11;;;;;;;;;;;13.40;99.90;;;;;;5003766;28;19910;-73
2023/04/24 09:53:36;;;;;;;;;;;13.40;99.90;;;;;;5010240;28;19960;-73
2023/04/24 09:56:03;;;;;;;;;;;13.30;99.90;;;;;;5010642;28;20382;-73
2023/04/24 09:58:29;;;;;;;;;;;13.20;99.90;;;;;;5011272;28;19914;-74
2023/04/24 10:00:56;;;;;;;;;;;13.20;99.90;;;;;;5009265;28;19916;-73
2023/04/24 10:03:28;;;;;;;;;;;13.20;99.90;;;;;;5010674;28;19929;-72
2023/04/24 10:05:54;;;;;;;;;;;13.20;99.90;;;;;;5041012;28;19916;-73
2023/04/24 10:08:20;;;;;;;;;;;13.20;99.90;;;;;;5004288;28;19943;-74
2023/04/24 10:10:46;;;;;;;;;;;13.20;99.90;;;;;;5003356;28;19921;-73
2023/04/24 10:13:13;;;;;;;;;;;13.20;99.90;;;;;;5009879;28;19913;-74
2023/04/24 10:15:40;;;;;;;;;;;13.10;99.90;;;;;;5003807;28;20337;-74
2023/04/24 10:18:07;;;;;;;;;;;13.10;99.90;;;;;;5004061;28;20370;-73
2023/04/24 10:20:33;;;;;;;;;;;13.10;99.90;;;;;;5004297;28;19969;-76
2023/04/24 10:23:00;;;;;;;;;;;13.10;99.90;;;;;;5022455;28;19921;-73
2023/04/24 10:25:30;;;;;;;;;;;13.10;99.90;;;;;;5006494;28;19910;-72
2023/04/24 10:27:59;;;;;;;;;;;13.30;99.90;;;;;;5010921;28;19938;-73
2023/04/24 10:30:26;;;;;;;;;;;13.30;99.90;;;;;;5001907;28;19913;-75
2023/04/24 10:32:52;;;;;;;;;;;13.30;99.90;;;;;;5009005;28;19959;-72
2023/04/24 10:35:18;;;;;;;;;;;13.30;99.90;;;;;;5009158;28;20017;-72
2023/04/24 10:37:48;;;;;;;;;;;13.30;99.90;;;;;;5014134;28;19909;-71
2023/04/24 10:40:25;;;;;;;;;;;13.30;99.90;;;;;;5014744;28;19996;-71
2023/04/24 10:42:53;;;;;;;;;;;13.30;99.90;;;;;;5008010;28;19914;-71
2023/04/24 10:45:23;;;;;;;;;;;13.40;99.90;;;;;;5003646;28;20007;-71
2023/04/24 10:48:00;;;;;;;;;;;13.50;99.90;;;;;;5013951;28;20407;-71
2023/04/24 10:50:26;;;;;;;;;;;13.50;99.90;;;;;;5011688;28;19913;-71
2023/04/24 10:52:54;;;;;;;;;;;13.50;99.90;;;;;;5011620;28;19917;-76
2023/04/24 10:55:39;;;;;;;;;;;13.50;99.90;;;;;;5012089;28;19910;-70
2023/04/24 10:58:05;;;;;;;;;;;13.40;99.90;;;;;;5021180;28;19913;-70
2023/04/24 11:00:31;;;;;;;;;;;13.50;99.90;;;;;;5009114;28;19993;-69
2023/04/24 11:02:57;;;;;;;;;;;13.40;99.90;;;;;;5009715;28;20075;-70
2023/04/24 11:05:43;;;;;;;;;;;13.40;99.90;;;;;;5010940;28;19909;-70
2023/04/24 11:08:13;;;;;;;;;;;13.40;99.90;;;;;;4986661;28;19924;-70
2023/04/24 11:10:54;;;;;;;;;;;13.50;99.90;;;;;;5005772;28;19925;-72
2023/04/24 11:13:23;;;;;;;;;;;13.50;99.90;;;;;;5010520;28;19909;-71
2023/04/24 11:16:08;;;;;;;;;;;13.60;99.90;;;;;;5006568;28;20428;-71
2023/04/24 11:18:39;;;;;;;;;;;13.70;99.90;;;;;;5011727;28;19909;-71
2023/04/24 11:21:16;;;;;;;;;;;13.90;99.90;;;;;;5009152;28;20286;-71
2023/04/24 11:23:41;;;;;;;;;;;13.80;99.90;;;;;;5007635;28;20004;-71
2023/04/24 11:26:32;;;;;;;;;;;13.80;99.90;;;;;;5009741;28;20039;-71
2023/04/24 11:29:06;;;;;;;;;;;13.80;99.90;;;;;;5004087;28;20029;-71
2023/04/24 11:31:39;;;;;;;;;;;13.80;99.90;;;;;;5005684;28;20003;-70
2023/04/24 11:34:08;;;;;;;;;;;13.80;99.90;;;;;;5008026;28;19913;-70
2023/04/24 11:36:35;;;;;;;;;;;13.70;99.90;;;;;;5005397;28;19913;-70
2023/04/24 11:39:01;;;;;;;;;;;13.70;99.90;;;;;;5012071;28;19912;-70
2023/04/24 11:41:26;;;;;;;;;;;13.70;99.90;;;;;;5016480;28;19913;-70
2023/04/24 11:43:53;;;;;;;;;;;13.60;99.90;;;;;;5010935;28;19918;-69
2023/04/24 11:46:20;;;;;;;;;;;13.60;99.90;;;;;;5014280;28;19920;-69
2023/04/24 11:48:46;;;;;;;;;;;13.60;99.90;;;;;;5008261;28;19913;-70
2023/04/24 11:51:12;;;;;;;;;;;13.70;99.90;;;;;;5007889;28;19926;-69
2023/04/24 11:53:38;;;;;;;;;;;13.70;99.90;;;;;;5008141;28;19919;-69
2023/04/24 11:56:04;;;;;;;;;;;13.60;99.90;;;;;;5012780;28;20329;-69
2023/04/24 11:58:34;;;;;;;;;;;13.60;99.90;;;;;;5008892;28;19909;-69
2023/04/24 12:01:01;;;;;;;;;;;13.50;99.90;;;;;;5006245;28;19910;-69
2023/04/24 12:03:26;;;;;;;;;;;13.50;99.90;;;;;;5015628;28;19947;-70
2023/04/24 12:05:52;;;;;;;;;;;13.60;99.90;;;;;;5008540;28;20408;-70
2023/04/24 12:08:32;;;;;;;;;;;13.80;99.90;;;;;;5009379;28;20037;-69
2023/04/24 12:10:59;;;;;;;;;;;13.80;99.90;;;;;;5007775;28;19921;-69
2023/04/24 12:13:25;;;;;;;;;;;13.90;99.90;;;;;;5010914;28;19921;-69
2023/04/24 12:15:51;;;;;;;;;;;14.00;99.90;;;;;;5012537;28;19928;-69
2023/04/24 12:18:17;;;;;;;;;;;14.00;99.90;;;;;;5014099;28;19996;-70
2023/04/24 12:20:42;;;;;;;;;;;14.00;99.90;;;;;;5011548;28;19920;-70
2023/04/24 12:23:08;;;;;;;;;;;14.00;99.90;;;;;;5012275;28;20007;-70
2023/04/24 12:25:35;;;;;;;;;;;13.80;99.90;;;;;;5010730;28;19913;-69
2023/04/24 12:28:04;;;;;;;;;;;13.60;99.90;;;;;;5020294;28;20384;-70
2023/04/24 12:30:56;;;;;;;;;;;13.50;99.90;;;;;;5007616;28;20381;-70
2023/04/24 12:33:21;;;;;;;;;;;13.40;99.90;;;;;;5006665;28;19936;-71
2023/04/24 12:35:54;;;;;;;;;;;13.40;99.90;;;;;;5009430;28;20322;-70
2023/04/24 12:38:24;;;;;;;;;;;13.40;99.90;;;;;;5005869;28;19913;-70
2023/04/24 12:41:01;;;;;;;;;;;13.40;99.90;;;;;;5011076;28;19917;-70
2023/04/24 12:43:27;;;;;;;;;;;13.30;99.90;;;;;;5011336;28;19945;-70
2023/04/24 12:45:53;;;;;;;;;;;13.30;99.90;;;;;;5012299;28;19929;-70
2023/04/24 12:48:20;;;;;;;;;;;13.30;99.90;;;;;;5009509;28;20453;-70
2023/04/24 12:50:45;;;;;;;;;;;13.30;99.90;;;;;;5011365;28;19917;-70
2023/04/24 12:53:12;;;;;;;;;;;13.30;99.90;;;;;;5008211;28;20325;-70
2023/04/24 12:55:38;;;;;;;;;;;13.30;99.90;;;;;;5009151;28;19916;-71
2023/04/24 12:58:03;;;;;;;;;;;13.20;99.90;;;;;;5006536;28;20332;-69
2023/04/24 13:00:29;;;;;;;;;;;13.20;99.90;;;;;;5012071;28;19909;-69
2023/04/24 13:02:55;;;;;;;;;;;13.10;99.90;;;;;;5010661;28;19920;-72
2023/04/24 13:05:22;;;;;;;;;;;13.10;99.90;;;;;;5011168;28;19910;-69
2023/04/24 13:07:47;;;;;;;;;;;13.10;99.90;;;;;;5009061;28;19940;-69
2023/04/24 13:10:13;;;;;;;;;;;13.10;99.90;;;;;;5010082;28;20369;-69
2023/04/24 13:12:40;;;;;;;;;;;13.10;99.90;;;;;;5007291;28;19919;-69
2023/04/24 13:15:06;;;;;;;;;;;13.00;99.90;;;;;;5009828;28;19961;-70
2023/04/24 13:17:32;;;;;;;;;;;13.00;99.90;;;;;;5011431;28;20442;-70
2023/04/24 13:19:58;;;;;;;;;;;13.00;99.90;;;;;;5024153;28;20006;-70
2023/04/24 13:22:24;;;;;;;;;;;13.00;99.90;;;;;;5013672;28;19961;-70
2023/04/24 13:24:50;;;;;;;;;;;13.00;99.90;;;;;;5006043;28;19913;-71
2023/04/24 13:27:16;;;;;;;;;;;13.00;99.90;;;;;;5006451;28;19914;-70
2023/04/24 13:29:42;;;;;;;;;;;13.00;99.90;;;;;;5004873;28;19909;-69
2023/04/24 13:32:08;;;;;;;;;;;13.00;99.90;;;;;;5014694;28;19924;-70
2023/04/24 13:34:36;;;;;;;;;;;12.90;99.90;;;;;;5008570;28;19992;-70
2023/04/24 13:37:03;;;;;;;;;;;12.90;99.90;;;;;;5011118;28;19960;-71
2023/04/24 13:39:29;;;;;;;;;;;12.80;99.90;;;;;;5011682;28;20004;-71
2023/04/24 13:41:55;;;;;;;;;;;12.80;99.90;;;;;;5011022;28;19920;-71
2023/04/24 13:44:22;;;;;;;;;;;12.80;99.90;;;;;;5023882;28;19921;-71
2023/04/24 13:46:48;;;;;;;;;;;12.80;99.90;;;;;;5013850;28;19913;-69
2023/04/24 13:49:15;;;;;;;;;;;12.90;99.90;;;;;;5011480;28;20063;-69
2023/04/24 13:51:41;;;;;;;;;;;12.90;99.90;;;;;;5015683;28;19936;-70
2023/04/24 13:54:06;;;;;;;;;;;12.90;99.90;;;;;;5008891;28;19916;-70
2023/04/24 13:56:33;;;;;;;;;;;13.00;99.90;;;;;;5014827;28;19909;-69
2023/04/24 13:58:59;;;;;;;;;;;13.00;99.90;;;;;;5014888;28;19916;-69
2023/04/24 14:01:26;;;;;;;;;;;12.90;99.90;;;;;;4995032;28;20460;-71
2023/04/24 14:03:52;;;;;;;;;;;12.90;99.90;;;;;;5013097;28;20003;-71
2023/04/24 14:06:18;;;;;;;;;;;12.90;99.90;;;;;;5012989;28;19933;-71
2023/04/24 14:08:44;;;;;;;;;;;12.90;99.90;;;;;;5015443;28;20019;-71
2023/04/24 14:11:10;;;;;;;;;;;12.90;99.90;;;;;;5010258;28;19921;-71
2023/04/24 14:13:36;;;;;;;;;;;12.80;99.90;;;;;;5028987;28;20473;-69